createdAt,value
2022-07-27T00:01:15.723Z,98901.73
2022-07-27T00:03:45.974Z,98907.84
2022-07-27T00:06:16.111Z,98907.65
2022-07-27T00:08:44.457Z,98911.38
2022-07-27T00:11:13.982Z,98910.98
2022-07-27T00:13:42.406Z,98908.89
2022-07-27T00:16:10.849Z,98908.65
2022-07-27T00:18:39.130Z,98905.10
2022-07-27T00:21:07.997Z,98904.23
2022-07-27T00:23:36.376Z,98903.25
2022-07-27T00:26:04.589Z,98900.85
2022-07-27T00:28:32.860Z,98898.29
2022-07-27T00:31:01.194Z,98896.76
2022-07-27T00:33:29.413Z,98896.66
2022-07-27T00:35:57.844Z,98897.96
2022-07-27T00:38:26.159Z,98892.84
2022-07-27T00:40:55.651Z,98896.04
2022-07-27T00:43:23.945Z,98895.04
2022-07-27T00:45:52.259Z,98901.27
2022-07-27T00:48:20.652Z,98897.23
2022-07-27T00:50:49.024Z,98897.91
2022-07-27T00:53:17.508Z,98901.85
2022-07-27T00:55:46.012Z,98903.27
2022-07-27T00:58:14.715Z,98905.56
2022-07-27T01:00:43.220Z,98908.57
2022-07-27T01:03:11.544Z,98906.27
2022-07-27T01:05:43.181Z,98905.58
2022-07-27T01:08:14.801Z,98903.21
2022-07-27T01:10:44.695Z,98909.16
2022-07-27T01:13:16.311Z,98912.19
2022-07-27T01:15:44.646Z,98911.95
2022-07-27T01:18:27.141Z,98911.46
2022-07-27T01:20:55.772Z,98912.46
2022-07-27T01:23:25.153Z,98912.37
2022-07-27T01:25:54.414Z,98913.77
2022-07-27T01:28:22.738Z,98914.77
2022-07-27T01:30:51.865Z,98914.99
2022-07-27T01:33:26.133Z,98911.46
2022-07-27T01:35:56.434Z,98912.02
2022-07-27T01:38:25.081Z,98912.41
2022-07-27T01:40:54.565Z,98914.37
2022-07-27T01:43:23.406Z,98906.00
2022-07-27T01:45:51.842Z,98907.66
2022-07-27T01:48:21.283Z,98911.52
2022-07-27T01:50:51.299Z,98910.21
2022-07-27T01:53:20.821Z,98910.92
2022-07-27T01:55:50.537Z,98914.30
2022-07-27T01:58:19.712Z,98909.77
2022-07-27T02:00:49.641Z,98909.90
2022-07-27T02:03:18.037Z,98910.37
2022-07-27T02:05:46.364Z,98908.02
2022-07-27T02:08:14.745Z,98910.08
2022-07-27T02:11:03.022Z,98910.48
2022-07-27T02:13:31.227Z,98914.05
2022-07-27T02:15:59.674Z,98918.93
2022-07-27T02:18:33.300Z,98916.95
2022-07-27T02:21:06.530Z,98910.10
2022-07-27T02:23:35.948Z,98910.56
2022-07-27T02:26:06.804Z,98909.73
2022-07-27T02:28:36.002Z,98909.80
2022-07-27T02:31:04.553Z,98909.28
2022-07-27T02:33:33.596Z,98907.75
2022-07-27T02:36:02.656Z,98904.02
2022-07-27T02:38:30.920Z,98902.88
2022-07-27T02:40:59.333Z,98900.86
2022-07-27T02:43:27.563Z,98900.96
2022-07-27T02:45:56.008Z,98898.02
2022-07-27T02:48:24.343Z,98904.55
2022-07-27T02:50:53.244Z,98903.40
2022-07-27T02:53:21.530Z,98906.33
2022-07-27T02:55:49.818Z,98910.33
2022-07-27T02:58:18.069Z,98913.40
2022-07-27T03:00:46.356Z,98919.58
2022-07-27T03:03:14.852Z,98925.59
2022-07-27T03:05:43.168Z,98930.11
2022-07-27T03:08:11.417Z,98937.17
2022-07-27T03:10:39.813Z,98941.31
2022-07-27T03:13:08.100Z,98950.33
2022-07-27T03:15:36.592Z,98951.54
2022-07-27T03:18:05.001Z,98953.65
2022-07-27T03:20:33.320Z,98958.93
2022-07-27T03:23:01.515Z,98963.02
2022-07-27T03:25:30.015Z,98960.98
2022-07-27T03:28:03.827Z,98960.91
2022-07-27T03:30:33.413Z,98961.88
2022-07-27T03:33:02.143Z,98960.86
2022-07-27T03:35:30.593Z,98963.36
2022-07-27T03:37:59.211Z,98960.48
2022-07-27T03:40:29.880Z,98960.56
2022-07-27T03:42:58.746Z,98965.41
2022-07-27T03:45:28.160Z,98972.16
2022-07-27T03:47:57.323Z,98974.08
2022-07-27T03:50:26.168Z,98974.90
2022-07-27T03:52:54.738Z,98977.61
2022-07-27T03:55:23.190Z,98978.37
2022-07-27T03:57:52.670Z,98974.63
2022-07-27T04:00:21.565Z,98977.52
2022-07-27T04:02:52.022Z,98979.29
2022-07-27T04:05:21.197Z,98976.92
2022-07-27T04:07:52.102Z,98975.73
2022-07-27T04:10:25.065Z,98976.61
2022-07-27T04:12:59.547Z,98974.16
2022-07-27T04:15:29.310Z,98977.14
2022-07-27T04:17:57.885Z,98987.30
2022-07-27T04:20:27.002Z,98983.68
2022-07-27T04:22:55.907Z,98982.21
2022-07-27T04:25:24.290Z,98983.99
2022-07-27T04:27:54.879Z,98977.81
2022-07-27T04:30:23.860Z,98978.53
2022-07-27T04:32:53.198Z,98977.33
2022-07-27T04:35:26.323Z,98978.87
2022-07-27T04:37:58.641Z,98980.68
2022-07-27T04:40:33.015Z,98978.72
2022-07-27T04:43:03.390Z,98976.91
2022-07-27T04:45:31.872Z,98975.73
2022-07-27T04:48:00.234Z,98974.05
2022-07-27T04:50:28.555Z,98976.20
2022-07-27T04:52:59.571Z,98977.52
2022-07-27T04:55:27.873Z,98982.92
2022-07-27T04:57:56.151Z,98978.96
2022-07-27T05:00:24.455Z,98980.34
2022-07-27T05:02:52.798Z,98979.54
2022-07-27T05:05:21.633Z,98983.67
2022-07-27T05:07:49.888Z,98980.56
2022-07-27T05:10:20.481Z,98978.16
2022-07-27T05:12:50.145Z,98983.67
2022-07-27T05:15:18.783Z,98978.86
2022-07-27T05:17:47.714Z,98975.07
2022-07-27T05:20:16.375Z,98975.57
2022-07-27T05:22:44.700Z,98977.11
2022-07-27T05:25:13.382Z,98975.48
2022-07-27T05:27:54.037Z,98981.50
2022-07-27T05:30:24.675Z,98982.21
2022-07-27T05:32:53.474Z,98982.94
2022-07-27T05:35:22.763Z,98983.30
2022-07-27T05:37:51.097Z,98986.59
2022-07-27T05:40:19.730Z,98995.13
2022-07-27T05:42:48.207Z,98989.86
2022-07-27T05:45:16.588Z,98987.95
2022-07-27T05:47:44.974Z,98991.08
2022-07-27T05:50:14.183Z,98991.78
2022-07-27T05:52:43.674Z,98990.08
2022-07-27T05:55:12.225Z,98989.95
2022-07-27T05:57:41.454Z,98987.79
2022-07-27T06:00:11.258Z,98992.14
2022-07-27T06:02:42.391Z,98995.82
2022-07-27T06:05:15.485Z,98997.81
2022-07-27T06:07:59.636Z,98995.70
2022-07-27T06:10:34.330Z,98998.38
2022-07-27T06:13:05.418Z,98997.20
2022-07-27T06:15:34.740Z,99000.11
2022-07-27T06:18:04.044Z,99005.05
2022-07-27T06:20:32.376Z,99005.11
2022-07-27T06:23:03.457Z,99005.49
2022-07-27T06:25:36.663Z,99008.82
2022-07-27T06:28:06.390Z,99008.57
2022-07-27T06:30:34.799Z,99006.92
2022-07-27T06:33:06.867Z,99009.27
2022-07-27T06:35:38.337Z,99016.43
2022-07-27T06:38:08.900Z,99019.54
2022-07-27T06:40:37.178Z,99023.98
2022-07-27T06:43:05.531Z,99026.61
2022-07-27T06:45:34.200Z,99026.07
2022-07-27T06:48:02.454Z,99024.29
2022-07-27T06:50:30.678Z,99020.23
2022-07-27T06:52:59.099Z,99019.48
2022-07-27T06:55:27.407Z,99019.91
2022-07-27T06:57:55.740Z,99023.51
2022-07-27T07:00:24.404Z,99028.13
2022-07-27T07:02:55.503Z,99027.73
2022-07-27T07:05:23.924Z,99028.08
2022-07-27T07:07:53.466Z,99026.94
2022-07-27T07:10:23.902Z,99028.63
2022-07-27T07:12:56.194Z,99030.92
2022-07-27T07:15:26.593Z,99028.08
2022-07-27T07:18:20.231Z,99027.11
2022-07-27T07:20:48.595Z,99020.64
2022-07-27T07:23:16.950Z,99024.27
2022-07-27T07:25:45.178Z,99027.63
2022-07-27T07:28:13.560Z,99031.98
2022-07-27T07:30:41.938Z,99028.05
2022-07-27T07:33:10.312Z,99033.05
2022-07-27T07:35:38.744Z,99036.42
2022-07-27T07:38:27.611Z,99042.48
2022-07-27T07:40:55.890Z,99049.44
2022-07-27T07:43:24.139Z,99054.57
2022-07-27T07:45:52.498Z,99053.40
2022-07-27T07:48:22.138Z,99063.27
2022-07-27T07:50:53.106Z,99067.69
2022-07-27T07:53:24.147Z,99069.56
2022-07-27T07:55:53.545Z,99069.77
2022-07-27T07:58:22.095Z,99065.98
2022-07-27T08:00:50.346Z,99064.13
2022-07-27T08:03:19.439Z,99067.32
2022-07-27T08:05:48.003Z,99067.54
2022-07-27T08:08:17.209Z,99069.55
2022-07-27T08:10:45.585Z,99064.77
2022-07-27T08:13:21.608Z,99067.30
2022-07-27T08:15:52.492Z,99068.66
2022-07-27T08:18:21.424Z,99073.85
2022-07-27T08:20:49.690Z,99080.45
2022-07-27T08:23:18.149Z,99081.95
2022-07-27T08:25:46.627Z,99079.09
2022-07-27T08:28:15.555Z,99074.58
2022-07-27T08:30:45.364Z,99078.83
2022-07-27T08:33:14.256Z,99083.44
2022-07-27T08:35:42.555Z,99080.10
2022-07-27T08:38:11.132Z,99075.33
2022-07-27T08:40:43.724Z,99076.64
2022-07-27T08:43:24.982Z,99077.55
2022-07-27T08:45:56.296Z,99079.48
2022-07-27T08:48:26.383Z,99077.15
2022-07-27T08:50:55.924Z,99079.28
2022-07-27T08:53:25.741Z,99079.83
2022-07-27T08:55:56.870Z,99077.27
2022-07-27T08:58:25.281Z,99077.77
2022-07-27T09:00:54.798Z,99081.80
2022-07-27T09:03:23.778Z,99076.77
2022-07-27T09:05:55.015Z,99078.10
2022-07-27T09:08:30.374Z,99078.11
2022-07-27T09:11:00.475Z,99076.77
2022-07-27T09:13:34.200Z,99080.48
2022-07-27T09:16:23.950Z,99079.61
2022-07-27T09:19:00.700Z,99072.51
2022-07-27T09:21:29.331Z,99073.90
2022-07-27T09:24:45.540Z,99072.77
2022-07-27T09:27:12.252Z,99072.36
2022-07-27T09:29:40.504Z,99073.46
2022-07-27T09:32:16.266Z,99075.95
2022-07-27T09:34:44.889Z,99068.31
2022-07-27T09:37:24.394Z,99066.33
2022-07-27T09:40:11.397Z,99064.77
2022-07-27T09:43:14.498Z,99063.12
2022-07-27T09:45:35.677Z,99060.42
2022-07-27T09:48:14.211Z,99053.68
2022-07-27T09:51:02.719Z,99056.15
2022-07-27T09:53:43.957Z,99055.59
2022-07-27T09:56:16.531Z,99053.23
2022-07-27T09:59:02.935Z,99057.18
2022-07-27T10:01:35.451Z,99052.52
2022-07-27T10:04:06.511Z,99052.98
2022-07-27T10:06:53.460Z,99049.84
2022-07-27T10:09:24.398Z,99043.55
2022-07-27T10:11:53.093Z,99039.91
2022-07-27T10:14:21.407Z,99038.19
2022-07-27T10:16:51.056Z,99036.04
2022-07-27T10:19:26.076Z,99040.77
2022-07-27T10:21:54.352Z,99041.58
2022-07-27T10:24:36.912Z,99041.83
2022-07-27T10:27:20.329Z,99042.02
2022-07-27T10:29:50.698Z,99045.34
2022-07-27T10:32:31.289Z,99041.45
2022-07-27T10:35:02.970Z,99039.92
2022-07-27T10:37:34.023Z,99038.06
2022-07-27T10:40:25.017Z,99038.38
2022-07-27T10:43:25.583Z,99037.30
2022-07-27T10:46:01.634Z,99036.35
2022-07-27T10:48:37.850Z,99036.48
2022-07-27T10:51:08.330Z,99036.20
2022-07-27T10:54:11.040Z,99040.89
2022-07-27T10:56:50.578Z,99044.19
2022-07-27T11:02:42.894Z,99042.98
2022-07-27T11:05:42.251Z,99042.93
2022-07-27T11:10:49.099Z,99040.70
2022-07-27T11:13:23.450Z,99034.30
2022-07-27T11:16:23.552Z,99033.81
2022-07-27T11:18:54.829Z,99032.59
2022-07-27T11:21:35.229Z,99021.55
2022-07-27T11:24:16.901Z,99017.69
2022-07-27T11:26:48.151Z,99018.85
2022-07-27T11:29:18.899Z,99017.10
2022-07-27T11:31:58.709Z,99016.06
2022-07-27T11:34:33.632Z,99015.74
2022-07-27T11:37:04.189Z,99020.71
2022-07-27T11:42:23.666Z,99019.48
2022-07-27T11:44:53.476Z,99020.34
2022-07-27T11:47:24.467Z,99016.60
2022-07-27T11:49:53.136Z,99010.38
2022-07-27T11:52:21.516Z,99009.84
2022-07-27T11:54:52.950Z,99008.27
2022-07-27T11:57:30.678Z,99007.84
2022-07-27T11:59:59.006Z,99009.77
2022-07-27T12:02:27.501Z,99006.11
2022-07-27T12:05:02.344Z,98998.48
2022-07-27T12:07:33.373Z,98998.13
2022-07-27T12:10:04.971Z,98992.52
2022-07-27T12:12:35.387Z,98987.23
2022-07-27T12:18:12.224Z,98976.42
2022-07-27T12:20:40.569Z,98977.98
2022-07-27T12:23:09.338Z,98977.45
2022-07-27T12:25:39.212Z,98976.85
2022-07-27T12:28:18.266Z,98972.27
2022-07-27T12:30:49.015Z,98971.74
2022-07-27T12:33:32.108Z,98972.78
2022-07-27T12:36:03.495Z,98968.16
2022-07-27T12:38:45.495Z,98970.87
2022-07-27T12:41:30.745Z,98971.77
2022-07-27T12:44:16.105Z,98969.88
2022-07-27T12:47:01.795Z,98968.68
2022-07-27T12:49:34.799Z,98963.08
2022-07-27T12:52:08.169Z,98968.73
2022-07-27T12:54:37.574Z,98969.58
2022-07-27T12:57:05.935Z,98966.63
2022-07-27T12:59:34.235Z,98970.34
2022-07-27T13:02:02.522Z,98972.95
2022-07-27T13:04:31.016Z,98976.58
2022-07-27T13:06:59.277Z,98976.05
2022-07-27T13:10:01.894Z,98979.45
2022-07-27T13:12:17.182Z,98978.73
2022-07-27T13:14:45.475Z,98981.95
2022-07-27T13:17:13.990Z,98982.31
2022-07-27T13:19:42.330Z,98979.27
2022-07-27T13:22:10.585Z,98985.73
2022-07-27T13:24:38.881Z,98987.62
2022-07-27T13:27:07.863Z,98979.73
2022-07-27T13:29:36.137Z,98975.80
2022-07-27T13:32:04.758Z,98979.19
2022-07-27T13:34:33.225Z,98976.18
2022-07-27T13:37:01.570Z,98980.52
2022-07-27T13:39:30.195Z,98981.66
2022-07-27T13:42:02.817Z,98985.67
2022-07-27T13:44:59.362Z,98982.04
2022-07-27T13:47:19.446Z,98978.30
2022-07-27T13:49:47.740Z,98975.80
2022-07-27T13:52:15.999Z,98976.42
2022-07-27T13:54:44.342Z,98971.15
2022-07-27T13:57:12.623Z,98968.95
2022-07-27T13:59:40.922Z,98967.96
2022-07-27T14:02:10.325Z,98960.98
2022-07-27T14:04:40.292Z,98962.23
2022-07-27T14:07:10.282Z,98959.00
2022-07-27T14:09:57.350Z,98958.65
2022-07-27T14:12:25.701Z,98956.40
2022-07-27T14:14:54.317Z,98957.59
2022-07-27T14:17:23.162Z,98955.33
2022-07-27T14:19:51.495Z,98958.02
2022-07-27T14:22:19.683Z,98952.83
2022-07-27T14:24:48.038Z,98957.02
2022-07-27T14:27:16.375Z,98950.70
2022-07-27T14:29:44.619Z,98945.29
2022-07-27T14:32:13.065Z,98944.95
2022-07-27T14:34:41.510Z,98946.96
2022-07-27T14:37:09.758Z,98945.21
2022-07-27T14:39:38.072Z,98951.83
2022-07-27T14:42:07.870Z,98945.68
2022-07-27T14:44:36.239Z,98945.60
2022-07-27T14:47:04.554Z,98945.73
2022-07-27T14:49:32.996Z,98943.90
2022-07-27T14:52:01.239Z,98941.69
2022-07-27T14:54:37.615Z,98940.95
2022-07-27T14:57:06.414Z,98943.77
2022-07-27T14:59:34.909Z,98938.73
2022-07-27T15:02:03.686Z,98940.03
2022-07-27T15:04:32.293Z,98940.14
2022-07-27T15:07:00.818Z,98937.49
2022-07-27T15:09:30.647Z,98935.73
2022-07-27T15:12:00.272Z,98933.45
2022-07-27T15:14:28.646Z,98936.84
2022-07-27T15:16:56.941Z,98935.75
2022-07-27T15:19:25.265Z,98931.88
2022-07-27T15:21:53.551Z,98929.38
2022-07-27T15:24:22.431Z,98931.80
2022-07-27T15:26:50.813Z,98931.96
2022-07-27T15:29:19.164Z,98931.53
2022-07-27T15:31:47.480Z,98928.73
2022-07-27T15:34:16.620Z,98926.63
2022-07-27T15:36:50.059Z,98926.58
2022-07-27T15:39:23.318Z,98925.63
2022-07-27T15:41:51.632Z,98926.21
2022-07-27T15:44:22.210Z,98928.73
2022-07-27T15:46:50.574Z,98923.42
2022-07-27T15:49:19.596Z,98923.29
2022-07-27T15:51:48.222Z,98926.20
2022-07-27T15:54:16.610Z,98926.17
2022-07-27T15:56:45.361Z,98930.73
2022-07-27T15:59:14.771Z,98935.27
2022-07-27T16:01:43.726Z,98930.02
2022-07-27T16:04:15.532Z,98927.67
2022-07-27T16:06:43.997Z,98927.85
2022-07-27T16:09:12.528Z,98925.40
2022-07-27T16:11:41.137Z,98925.74
2022-07-27T16:14:09.528Z,98923.77
2022-07-27T16:16:37.851Z,98924.79
2022-07-27T16:19:13.254Z,98920.75
2022-07-27T16:21:55.146Z,98921.81
2022-07-27T16:24:31.257Z,98923.27
2022-07-27T16:27:03.895Z,98921.81
2022-07-27T16:29:33.721Z,98919.64
2022-07-27T16:32:02.721Z,98918.27
2022-07-27T16:34:32.910Z,98920.77
2022-07-27T16:37:01.492Z,98916.58
2022-07-27T16:39:33.244Z,98916.93
2022-07-27T16:42:01.586Z,98919.90
2022-07-27T16:44:29.894Z,98925.05
2022-07-27T16:46:58.274Z,98927.29
2022-07-27T16:49:33.870Z,98923.04
2022-07-27T16:52:06.415Z,98923.64
2022-07-27T16:54:39.343Z,98921.95
2022-07-27T16:57:09.433Z,98922.54
2022-07-27T16:59:39.334Z,98929.30
2022-07-27T17:02:07.700Z,98928.44
2022-07-27T17:04:36.116Z,98929.63
2022-07-27T17:07:04.447Z,98928.51
2022-07-27T17:09:33.711Z,98930.36
2022-07-27T17:12:01.936Z,98930.88
2022-07-27T17:14:30.375Z,98929.34
2022-07-27T17:17:00.573Z,98925.23
2022-07-27T17:19:28.810Z,98923.70
2022-07-27T17:21:57.367Z,98925.71
2022-07-27T17:24:25.662Z,98923.62
2022-07-27T17:26:53.861Z,98929.91
2022-07-27T17:29:22.142Z,98928.72
2022-07-27T17:31:50.377Z,98930.60
2022-07-27T17:34:18.660Z,98929.80
2022-07-27T17:36:46.994Z,98930.34
2022-07-27T17:39:15.697Z,98930.59
2022-07-27T17:41:44.747Z,98930.38
2022-07-27T17:44:13.050Z,98929.36
2022-07-27T17:46:41.276Z,98932.77
2022-07-27T17:49:09.954Z,98935.02
2022-07-27T17:51:38.550Z,98938.19
2022-07-27T17:54:06.815Z,98939.91
2022-07-27T17:56:36.000Z,98942.17
2022-07-27T17:59:20.410Z,98944.48
2022-07-27T18:01:52.641Z,98944.94
2022-07-27T18:04:21.074Z,98942.85
2022-07-27T18:06:49.355Z,98947.20
2022-07-27T18:09:17.676Z,98951.98
2022-07-27T18:11:46.223Z,98952.96
2022-07-27T18:14:14.466Z,98950.58
2022-07-27T18:16:42.831Z,98951.41
2022-07-27T18:19:11.437Z,98954.24
2022-07-27T18:21:40.642Z,98949.90
2022-07-27T18:24:10.329Z,98953.57
2022-07-27T18:26:39.008Z,98959.20
2022-07-27T18:29:08.257Z,98963.30
2022-07-27T18:31:36.709Z,98962.17
2022-07-27T18:34:07.948Z,98962.38
2022-07-27T18:36:42.652Z,98964.88
2022-07-27T18:39:11.384Z,98970.40
2022-07-27T18:41:40.841Z,98976.47
2022-07-27T18:44:09.340Z,98980.55
2022-07-27T18:46:38.009Z,98990.38
2022-07-27T18:49:06.677Z,98993.83
2022-07-27T18:51:37.501Z,98996.31
2022-07-27T18:54:05.854Z,99000.39
2022-07-27T18:56:34.066Z,99006.65
2022-07-27T18:59:02.381Z,99007.94
2022-07-27T19:01:30.788Z,99005.21
2022-07-27T19:03:59.272Z,99003.16
2022-07-27T19:06:27.594Z,99003.92
2022-07-27T19:08:55.838Z,99004.60
2022-07-27T19:11:24.071Z,99007.33
2022-07-27T19:13:54.836Z,99013.81
2022-07-27T19:16:23.202Z,99020.11
2022-07-27T19:18:53.118Z,99028.60
2022-07-27T19:21:21.656Z,99035.96
2022-07-27T19:23:50.111Z,99052.66
2022-07-27T19:26:18.443Z,99055.81
2022-07-27T19:28:46.870Z,99055.49
2022-07-27T19:31:22.596Z,99054.55
2022-07-27T19:33:52.729Z,99051.09
2022-07-27T19:36:23.318Z,99049.92
2022-07-27T19:38:52.052Z,99052.53
2022-07-27T19:41:20.585Z,99049.11
2022-07-27T19:43:48.892Z,99045.59
2022-07-27T19:46:17.309Z,99044.77
2022-07-27T19:48:46.975Z,99050.23
2022-07-27T19:51:15.946Z,99059.73
2022-07-27T19:53:44.503Z,99067.16
2022-07-27T19:56:13.069Z,99078.04
2022-07-27T19:58:41.927Z,99081.54
2022-07-27T20:01:10.483Z,99082.49
2022-07-27T20:03:52.659Z,99081.81
2022-07-27T20:06:24.911Z,99085.75
2022-07-27T20:08:59.850Z,99088.44
2022-07-27T20:11:30.802Z,99092.70
2022-07-27T20:13:59.459Z,99089.20
2022-07-27T20:16:30.036Z,99090.15
2022-07-27T20:18:59.887Z,99090.27
2022-07-27T20:21:28.175Z,99092.21
2022-07-27T20:23:58.078Z,99092.60
2022-07-27T20:26:26.396Z,99093.75
2022-07-27T20:28:54.993Z,99092.34
2022-07-27T20:31:23.351Z,99089.41
2022-07-27T20:33:51.735Z,99086.55
2022-07-27T20:36:19.961Z,99086.05
2022-07-27T20:38:48.211Z,99085.34
2022-07-27T20:41:16.533Z,99091.21
2022-07-27T20:43:44.814Z,99096.82
2022-07-27T20:46:13.200Z,99103.09
2022-07-27T20:48:44.247Z,99108.81
2022-07-27T20:51:12.638Z,99111.59
2022-07-27T20:53:41.282Z,99110.81
2022-07-27T20:56:09.633Z,99111.17
2022-07-27T20:58:37.894Z,99113.90
2022-07-27T21:01:06.174Z,99112.22
2022-07-27T21:03:34.521Z,99110.88
2022-07-27T21:06:03.586Z,99113.13
2022-07-27T21:08:31.859Z,99115.05
2022-07-27T21:11:00.558Z,99122.02
2022-07-27T21:13:28.859Z,99119.50
2022-07-27T21:15:57.120Z,99118.83
2022-07-27T21:18:25.414Z,99113.55
2022-07-27T21:20:53.804Z,99112.35
2022-07-27T21:23:41.278Z,99115.35
2022-07-27T21:26:09.629Z,99111.98
2022-07-27T21:28:37.934Z,99115.82
2022-07-27T21:31:09.803Z,99115.45
2022-07-27T21:33:40.048Z,99116.11
2022-07-27T21:36:09.040Z,99117.31
2022-07-27T21:38:37.535Z,99117.98
2022-07-27T21:41:05.962Z,99121.45
2022-07-27T21:43:39.182Z,99127.82
2022-07-27T21:46:07.989Z,99127.27
2022-07-27T21:48:36.520Z,99128.92
2022-07-27T21:51:04.959Z,99126.46
2022-07-27T21:53:33.654Z,99129.90
2022-07-27T21:56:02.991Z,99131.15
2022-07-27T21:58:31.266Z,99140.36
2022-07-27T22:00:59.838Z,99141.09
2022-07-27T22:03:28.309Z,99148.14
2022-07-27T22:05:56.911Z,99146.36
2022-07-27T22:08:25.365Z,99143.14
2022-07-27T22:10:53.837Z,99141.67
2022-07-27T22:13:22.285Z,99147.02
2022-07-27T22:15:50.956Z,99148.95
2022-07-27T22:18:20.622Z,99148.88
2022-07-27T22:20:49.196Z,99151.77
2022-07-27T22:23:17.662Z,99151.33
2022-07-27T22:25:46.165Z,99155.73
2022-07-27T22:28:14.640Z,99158.27
2022-07-27T22:30:43.131Z,99161.90
2022-07-27T22:33:28.713Z,99157.43
2022-07-27T22:35:57.744Z,99160.90
2022-07-27T22:38:27.962Z,99166.73
2022-07-27T22:40:56.718Z,99169.27
2022-07-27T22:43:25.330Z,99168.02
2022-07-27T22:45:53.790Z,99172.57
2022-07-27T22:48:22.777Z,99176.23
2022-07-27T22:50:51.384Z,99175.33
2022-07-27T22:53:19.808Z,99177.52
2022-07-27T22:55:48.392Z,99179.88
2022-07-27T22:58:17.170Z,99184.42
2022-07-27T23:00:45.660Z,99185.39
2022-07-27T23:03:14.652Z,99188.18
2022-07-27T23:05:43.199Z,99195.55
2022-07-27T23:08:11.644Z,99199.39
2022-07-27T23:10:46.278Z,99205.09
2022-07-27T23:13:16.010Z,99201.33
2022-07-27T23:15:45.847Z,99201.73
2022-07-27T23:18:15.249Z,99200.27
2022-07-27T23:20:43.920Z,99200.98
2022-07-27T23:23:16.601Z,99199.83
2022-07-27T23:25:47.258Z,99195.75
2022-07-27T23:28:17.142Z,99192.23
2022-07-27T23:30:45.595Z,99192.02
2022-07-27T23:33:14.055Z,99187.20
2022-07-27T23:35:42.585Z,99192.80
2022-07-27T23:38:11.040Z,99190.44
2022-07-27T23:40:39.485Z,99190.94
2022-07-27T23:43:08.044Z,99195.31
2022-07-27T23:45:36.643Z,99203.36
2022-07-27T23:48:05.414Z,99211.88
2022-07-27T23:50:34.132Z,99215.61
2022-07-27T23:53:02.615Z,99219.20
2022-07-27T23:55:31.019Z,99213.60
2022-07-27T23:57:59.577Z,99212.75
